sensor_id;sensor_type;location;lat;lon;timestamp;P1;durP1;ratioP1;P2;durP2;ratioP2
11653;SDS011;5883;48.818;9.114;2023-05-10T00:02:02;2.28;;;0.90;;
11653;SDS011;5883;48.818;9.114;2023-05-10T00:04:47;0.75;;;0.75;;
11653;SDS011;5883;48.818;9.114;2023-05-10T00:07:33;2.15;;;0.73;;
11653;SDS011;5883;48.818;9.114;2023-05-10T00:10:19;1.83;;;0.70;;
11653;SDS011;5883;48.818;9.114;2023-05-10T00:13:04;0.90;;;0.70;;
11653;SDS011;5883;48.818;9.114;2023-05-10T00:15:49;1.00;;;0.70;;
11653;SDS011;5883;48.818;9.114;2023-05-10T00:18:34;1.65;;;0.73;;
11653;SDS011;5883;48.818;9.114;2023-05-10T00:21:19;1.65;;;0.52;;
11653;SDS011;5883;48.818;9.114;2023-05-10T00:24:04;0.60;;;0.60;;
11653;SDS011;5883;48.818;9.114;2023-05-10T00:26:51;1.38;;;0.65;;
11653;SDS011;5883;48.818;9.114;2023-05-10T00:29:35;0.50;;;0.50;;
11653;SDS011;5883;48.818;9.114;2023-05-10T00:32:20;2.38;;;0.65;;
11653;SDS011;5883;48.818;9.114;2023-05-10T00:35:06;0.50;;;0.50;;
11653;SDS011;5883;48.818;9.114;2023-05-10T00:37:51;0.60;;;0.60;;
11653;SDS011;5883;48.818;9.114;2023-05-10T00:40:36;0.70;;;0.70;;
11653;SDS011;5883;48.818;9.114;2023-05-10T00:43:22;0.98;;;0.90;;
11653;SDS011;5883;48.818;9.114;2023-05-10T00:46:07;4.63;;;0.60;;
11653;SDS011;5883;48.818;9.114;2023-05-10T00:48:52;0.60;;;0.60;;
11653;SDS011;5883;48.818;9.114;2023-05-10T00:51:37;0.82;;;0.60;;
11653;SDS011;5883;48.818;9.114;2023-05-10T00:54:22;6.18;;;0.80;;
11653;SDS011;5883;48.818;9.114;2023-05-10T00:57:07;0.95;;;0.63;;
11653;SDS011;5883;48.818;9.114;2023-05-10T00:59:54;1.90;;;0.65;;
11653;SDS011;5883;48.818;9.114;2023-05-10T01:02:39;0.70;;;0.70;;
11653;SDS011;5883;48.818;9.114;2023-05-10T01:05:25;0.70;;;0.70;;
11653;SDS011;5883;48.818;9.114;2023-05-10T01:14:56;0.65;;;0.65;;
11653;SDS011;5883;48.818;9.114;2023-05-10T01:17:42;0.77;;;0.70;;
11653;SDS011;5883;48.818;9.114;2023-05-10T01:20:28;0.70;;;0.70;;
11653;SDS011;5883;48.818;9.114;2023-05-10T01:23:22;0.80;;;0.70;;
11653;SDS011;5883;48.818;9.114;2023-05-10T01:26:38;0.60;;;0.60;;
11653;SDS011;5883;48.818;9.114;2023-05-10T01:29:28;1.60;;;0.70;;
11653;SDS011;5883;48.818;9.114;2023-05-10T01:32:21;0.80;;;0.80;;
11653;SDS011;5883;48.818;9.114;2023-05-10T01:35:10;1.70;;;0.70;;
11653;SDS011;5883;48.818;9.114;2023-05-10T01:37:59;0.63;;;0.63;;
11653;SDS011;5883;48.818;9.114;2023-05-10T01:40:52;4.13;;;0.70;;
11653;SDS011;5883;48.818;9.114;2023-05-10T01:43:43;1.40;;;0.80;;
11653;SDS011;5883;48.818;9.114;2023-05-10T01:46:32;0.75;;;0.75;;
11653;SDS011;5883;48.818;9.114;2023-05-10T01:49:20;1.33;;;0.80;;
11653;SDS011;5883;48.818;9.114;2023-05-10T01:52:09;0.73;;;0.73;;
11653;SDS011;5883;48.818;9.114;2023-05-10T01:54:55;2.05;;;0.85;;
11653;SDS011;5883;48.818;9.114;2023-05-10T01:57:42;1.25;;;0.80;;
11653;SDS011;5883;48.818;9.114;2023-05-10T02:00:27;0.80;;;0.80;;
11653;SDS011;5883;48.818;9.114;2023-05-10T02:03:13;1.13;;;0.90;;
11653;SDS011;5883;48.818;9.114;2023-05-10T02:06:00;1.88;;;0.85;;
11653;SDS011;5883;48.818;9.114;2023-05-10T02:08:46;0.80;;;0.80;;
11653;SDS011;5883;48.818;9.114;2023-05-10T02:11:32;2.53;;;0.80;;
11653;SDS011;5883;48.818;9.114;2023-05-10T02:14:18;0.80;;;0.80;;
11653;SDS011;5883;48.818;9.114;2023-05-10T02:17:04;1.58;;;0.80;;
11653;SDS011;5883;48.818;9.114;2023-05-10T02:19:50;2.78;;;0.82;;
11653;SDS011;5883;48.818;9.114;2023-05-10T02:22:38;0.98;;;0.98;;
11653;SDS011;5883;48.818;9.114;2023-05-10T02:25:24;1.00;;;0.90;;
11653;SDS011;5883;48.818;9.114;2023-05-10T02:28:09;1.00;;;1.00;;
11653;SDS011;5883;48.818;9.114;2023-05-10T02:30:56;2.80;;;2.50;;
11653;SDS011;5883;48.818;9.114;2023-05-10T02:33:41;8.05;;;7.35;;
11653;SDS011;5883;48.818;9.114;2023-05-10T02:36:27;9.38;;;8.52;;
11653;SDS011;5883;48.818;9.114;2023-05-10T02:39:14;10.02;;;8.35;;
11653;SDS011;5883;48.818;9.114;2023-05-10T02:42:00;6.53;;;5.25;;
11653;SDS011;5883;48.818;9.114;2023-05-10T02:44:46;4.40;;;4.10;;
11653;SDS011;5883;48.818;9.114;2023-05-10T02:47:32;7.18;;;3.47;;
11653;SDS011;5883;48.818;9.114;2023-05-10T02:50:17;3.38;;;3.08;;
11653;SDS011;5883;48.818;9.114;2023-05-10T02:53:03;2.47;;;2.28;;
11653;SDS011;5883;48.818;9.114;2023-05-10T02:55:51;2.38;;;1.52;;
11653;SDS011;5883;48.818;9.114;2023-05-10T02:58:37;1.40;;;1.30;;
11653;SDS011;5883;48.818;9.114;2023-05-10T03:01:22;1.40;;;1.30;;
11653;SDS011;5883;48.818;9.114;2023-05-10T03:04:08;1.00;;;1.00;;
11653;SDS011;5883;48.818;9.114;2023-05-10T03:06:53;1.20;;;1.10;;
11653;SDS011;5883;48.818;9.114;2023-05-10T03:09:38;3.72;;;1.02;;
11653;SDS011;5883;48.818;9.114;2023-05-10T03:12:27;1.50;;;0.93;;
11653;SDS011;5883;48.818;9.114;2023-05-10T03:15:17;0.88;;;0.85;;
11653;SDS011;5883;48.818;9.114;2023-05-10T03:18:06;1.20;;;1.10;;
11653;SDS011;5883;48.818;9.114;2023-05-10T03:21:03;1.05;;;0.98;;
11653;SDS011;5883;48.818;9.114;2023-05-10T03:23:50;1.00;;;1.00;;
11653;SDS011;5883;48.818;9.114;2023-05-10T03:26:36;1.23;;;1.13;;
11653;SDS011;5883;48.818;9.114;2023-05-10T03:29:23;1.27;;;1.17;;
11653;SDS011;5883;48.818;9.114;2023-05-10T03:32:10;2.92;;;1.00;;
11653;SDS011;5883;48.818;9.114;2023-05-10T03:34:55;1.40;;;1.30;;
11653;SDS011;5883;48.818;9.114;2023-05-10T03:37:40;3.85;;;1.30;;
11653;SDS011;5883;48.818;9.114;2023-05-10T03:40:25;1.40;;;1.30;;
11653;SDS011;5883;48.818;9.114;2023-05-10T03:43:12;1.73;;;1.10;;
11653;SDS011;5883;48.818;9.114;2023-05-10T03:45:58;1.20;;;1.10;;
11653;SDS011;5883;48.818;9.114;2023-05-10T03:48:43;1.50;;;1.40;;
11653;SDS011;5883;48.818;9.114;2023-05-10T03:51:28;1.50;;;1.40;;
11653;SDS011;5883;48.818;9.114;2023-05-10T03:54:14;1.48;;;1.38;;
11653;SDS011;5883;48.818;9.114;2023-05-10T03:56:59;1.30;;;1.20;;
11653;SDS011;5883;48.818;9.114;2023-05-10T03:59:45;2.80;;;1.23;;
11653;SDS011;5883;48.818;9.114;2023-05-10T04:02:31;1.25;;;1.17;;
11653;SDS011;5883;48.818;9.114;2023-05-10T04:05:16;2.25;;;1.10;;
11653;SDS011;5883;48.818;9.114;2023-05-10T04:08:01;2.08;;;1.40;;
11653;SDS011;5883;48.818;9.114;2023-05-10T04:10:46;1.40;;;1.30;;
11653;SDS011;5883;48.818;9.114;2023-05-10T04:13:31;1.30;;;1.20;;
11653;SDS011;5883;48.818;9.114;2023-05-10T04:16:16;2.35;;;1.20;;
11653;SDS011;5883;48.818;9.114;2023-05-10T04:19:02;2.17;;;1.23;;
11653;SDS011;5883;48.818;9.114;2023-05-10T04:21:47;1.50;;;1.40;;
11653;SDS011;5883;48.818;9.114;2023-05-10T04:24:32;2.90;;;1.48;;
11653;SDS011;5883;48.818;9.114;2023-05-10T04:27:17;1.30;;;1.20;;
11653;SDS011;5883;48.818;9.114;2023-05-10T04:30:02;1.45;;;1.30;;
11653;SDS011;5883;48.818;9.114;2023-05-10T04:32:48;2.92;;;1.20;;
11653;SDS011;5883;48.818;9.114;2023-05-10T04:35:34;2.90;;;1.20;;
11653;SDS011;5883;48.818;9.114;2023-05-10T04:38:19;2.45;;;1.17;;
11653;SDS011;5883;48.818;9.114;2023-05-10T04:41:04;1.00;;;1.00;;
11653;SDS011;5883;48.818;9.114;2023-05-10T04:43:50;1.38;;;1.25;;
11653;SDS011;5883;48.818;9.114;2023-05-10T04:46:35;2.40;;;1.33;;
11653;SDS011;5883;48.818;9.114;2023-05-10T04:49:19;1.10;;;1.00;;
11653;SDS011;5883;48.818;9.114;2023-05-10T04:52:06;1.35;;;1.15;;
11653;SDS011;5883;48.818;9.114;2023-05-10T04:54:51;3.03;;;1.23;;
11653;SDS011;5883;48.818;9.114;2023-05-10T04:57:36;1.30;;;1.20;;
11653;SDS011;5883;48.818;9.114;2023-05-10T05:00:21;1.00;;;1.00;;
11653;SDS011;5883;48.818;9.114;2023-05-10T05:03:06;2.08;;;1.30;;
11653;SDS011;5883;48.818;9.114;2023-05-10T05:05:51;2.47;;;1.45;;
11653;SDS011;5883;48.818;9.114;2023-05-10T05:08:38;1.27;;;1.13;;
11653;SDS011;5883;48.818;9.114;2023-05-10T05:11:23;1.63;;;1.25;;
11653;SDS011;5883;48.818;9.114;2023-05-10T05:14:09;1.50;;;1.00;;
11653;SDS011;5883;48.818;9.114;2023-05-10T05:16:53;1.35;;;1.20;;
11653;SDS011;5883;48.818;9.114;2023-05-10T05:19:39;1.35;;;1.20;;
11653;SDS011;5883;48.818;9.114;2023-05-10T05:22:24;2.83;;;1.27;;
11653;SDS011;5883;48.818;9.114;2023-05-10T05:25:12;1.42;;;1.02;;
11653;SDS011;5883;48.818;9.114;2023-05-10T05:27:58;1.60;;;1.20;;
11653;SDS011;5883;48.818;9.114;2023-05-10T05:30:43;2.33;;;1.20;;
11653;SDS011;5883;48.818;9.114;2023-05-10T05:33:28;2.45;;;1.10;;
11653;SDS011;5883;48.818;9.114;2023-05-10T05:36:13;1.13;;;1.02;;
11653;SDS011;5883;48.818;9.114;2023-05-10T05:38:58;1.13;;;1.02;;
11653;SDS011;5883;48.818;9.114;2023-05-10T05:41:45;3.45;;;1.40;;
11653;SDS011;5883;48.818;9.114;2023-05-10T05:44:30;1.63;;;1.20;;
11653;SDS011;5883;48.818;9.114;2023-05-10T05:47:15;1.35;;;1.25;;
11653;SDS011;5883;48.818;9.114;2023-05-10T05:49:59;1.38;;;1.27;;
11653;SDS011;5883;48.818;9.114;2023-05-10T05:52:44;2.25;;;1.20;;
11653;SDS011;5883;48.818;9.114;2023-05-10T05:55:29;2.90;;;1.25;;
11653;SDS011;5883;48.818;9.114;2023-05-10T05:58:16;1.30;;;1.20;;
11653;SDS011;5883;48.818;9.114;2023-05-10T06:01:01;1.38;;;1.00;;
11653;SDS011;5883;48.818;9.114;2023-05-10T06:03:46;1.40;;;1.13;;
11653;SDS011;5883;48.818;9.114;2023-05-10T06:06:31;3.05;;;1.38;;
11653;SDS011;5883;48.818;9.114;2023-05-10T06:09:17;1.30;;;1.20;;
11653;SDS011;5883;48.818;9.114;2023-05-10T06:12:02;1.30;;;1.20;;
11653;SDS011;5883;48.818;9.114;2023-05-10T06:14:48;1.58;;;1.13;;
11653;SDS011;5883;48.818;9.114;2023-05-10T06:17:33;1.70;;;1.40;;
11653;SDS011;5883;48.818;9.114;2023-05-10T06:20:18;1.73;;;1.35;;
11653;SDS011;5883;48.818;9.114;2023-05-10T06:23:03;1.50;;;1.30;;
11653;SDS011;5883;48.818;9.114;2023-05-10T06:25:48;1.38;;;1.27;;
11653;SDS011;5883;48.818;9.114;2023-05-10T06:28:32;2.17;;;1.65;;
11653;SDS011;5883;48.818;9.114;2023-05-10T06:31:19;2.75;;;1.40;;
11653;SDS011;5883;48.818;9.114;2023-05-10T06:34:04;1.98;;;1.45;;
11653;SDS011;5883;48.818;9.114;2023-05-10T06:36:51;2.90;;;1.60;;
11653;SDS011;5883;48.818;9.114;2023-05-10T06:39:36;2.35;;;1.30;;
11653;SDS011;5883;48.818;9.114;2023-05-10T06:42:21;2.30;;;1.63;;
11653;SDS011;5883;48.818;9.114;2023-05-10T06:45:09;4.15;;;1.20;;
11653;SDS011;5883;48.818;9.114;2023-05-10T06:47:55;3.80;;;1.15;;
11653;SDS011;5883;48.818;9.114;2023-05-10T06:50:40;2.45;;;1.35;;
11653;SDS011;5883;48.818;9.114;2023-05-10T06:53:26;1.55;;;1.30;;
11653;SDS011;5883;48.818;9.114;2023-05-10T06:56:11;1.40;;;1.30;;
11653;SDS011;5883;48.818;9.114;2023-05-10T06:58:56;4.35;;;1.30;;
11653;SDS011;5883;48.818;9.114;2023-05-10T07:01:41;4.38;;;1.30;;
11653;SDS011;5883;48.818;9.114;2023-05-10T07:04:28;4.50;;;1.42;;
11653;SDS011;5883;48.818;9.114;2023-05-10T07:07:13;2.15;;;1.40;;
11653;SDS011;5883;48.818;9.114;2023-05-10T07:09:58;1.52;;;1.20;;
11653;SDS011;5883;48.818;9.114;2023-05-10T07:12:43;2.83;;;1.30;;
11653;SDS011;5883;48.818;9.114;2023-05-10T07:15:28;1.45;;;1.05;;
11653;SDS011;5883;48.818;9.114;2023-05-10T07:18:13;2.03;;;1.10;;
11653;SDS011;5883;48.818;9.114;2023-05-10T07:20:59;1.50;;;1.30;;
11653;SDS011;5883;48.818;9.114;2023-05-10T07:23:44;1.27;;;1.10;;
11653;SDS011;5883;48.818;9.114;2023-05-10T07:26:29;1.25;;;1.08;;
11653;SDS011;5883;48.818;9.114;2023-05-10T07:29:14;1.33;;;1.20;;
11653;SDS011;5883;48.818;9.114;2023-05-10T07:31:59;1.50;;;1.35;;
11653;SDS011;5883;48.818;9.114;2023-05-10T07:34:44;2.58;;;1.10;;
11653;SDS011;5883;48.818;9.114;2023-05-10T07:37:30;4.30;;;1.70;;
11653;SDS011;5883;48.818;9.114;2023-05-10T07:40:15;1.83;;;1.40;;
11653;SDS011;5883;48.818;9.114;2023-05-10T07:43:01;6.38;;;1.15;;
11653;SDS011;5883;48.818;9.114;2023-05-10T07:45:46;1.85;;;0.88;;
11653;SDS011;5883;48.818;9.114;2023-05-10T07:48:31;1.17;;;0.88;;
11653;SDS011;5883;48.818;9.114;2023-05-10T07:51:16;2.00;;;0.82;;
11653;SDS011;5883;48.818;9.114;2023-05-10T07:54:02;6.57;;;1.70;;
11653;SDS011;5883;48.818;9.114;2023-05-10T07:56:47;1.13;;;0.93;;
11653;SDS011;5883;48.818;9.114;2023-05-10T07:59:32;1.40;;;1.00;;
11653;SDS011;5883;48.818;9.114;2023-05-10T08:02:18;2.25;;;0.93;;
11653;SDS011;5883;48.818;9.114;2023-05-10T08:05:03;1.92;;;1.00;;
11653;SDS011;5883;48.818;9.114;2023-05-10T08:07:48;1.42;;;0.90;;
11653;SDS011;5883;48.818;9.114;2023-05-10T08:10:35;2.25;;;1.05;;
11653;SDS011;5883;48.818;9.114;2023-05-10T08:13:20;1.35;;;0.77;;
11653;SDS011;5883;48.818;9.114;2023-05-10T08:16:05;1.98;;;1.10;;
11653;SDS011;5883;48.818;9.114;2023-05-10T08:18:51;1.00;;;0.85;;
11653;SDS011;5883;48.818;9.114;2023-05-10T08:21:38;0.70;;;0.70;;
11653;SDS011;5883;48.818;9.114;2023-05-10T08:24:26;0.70;;;0.70;;
11653;SDS011;5883;48.818;9.114;2023-05-10T08:27:12;1.08;;;0.82;;
11653;SDS011;5883;48.818;9.114;2023-05-10T08:29:57;0.95;;;0.80;;
11653;SDS011;5883;48.818;9.114;2023-05-10T08:32:42;1.20;;;0.70;;
11653;SDS011;5883;48.818;9.114;2023-05-10T08:35:27;0.93;;;0.82;;
11653;SDS011;5883;48.818;9.114;2023-05-10T08:38:12;1.23;;;0.80;;
11653;SDS011;5883;48.818;9.114;2023-05-10T08:40:57;7.97;;;1.40;;
11653;SDS011;5883;48.818;9.114;2023-05-10T08:43:45;0.90;;;0.85;;
11653;SDS011;5883;48.818;9.114;2023-05-10T08:46:31;0.70;;;0.68;;
11653;SDS011;5883;48.818;9.114;2023-05-10T08:49:19;1.98;;;0.75;;
11653;SDS011;5883;48.818;9.114;2023-05-10T08:52:04;1.38;;;0.80;;
11653;SDS011;5883;48.818;9.114;2023-05-10T08:54:51;0.70;;;0.70;;
11653;SDS011;5883;48.818;9.114;2023-05-10T08:57:36;1.85;;;0.77;;
11653;SDS011;5883;48.818;9.114;2023-05-10T09:00:23;0.88;;;0.80;;
11653;SDS011;5883;48.818;9.114;2023-05-10T09:03:08;0.80;;;0.60;;
11653;SDS011;5883;48.818;9.114;2023-05-10T09:05:53;0.60;;;0.60;;
11653;SDS011;5883;48.818;9.114;2023-05-10T09:08:39;1.63;;;0.43;;
11653;SDS011;5883;48.818;9.114;2023-05-10T09:11:25;1.20;;;0.63;;
11653;SDS011;5883;48.818;9.114;2023-05-10T09:14:12;2.05;;;0.80;;
11653;SDS011;5883;48.818;9.114;2023-05-10T09:16:59;0.80;;;0.60;;
11653;SDS011;5883;48.818;9.114;2023-05-10T09:19:44;2.95;;;1.00;;
11653;SDS011;5883;48.818;9.114;2023-05-10T09:22:29;0.85;;;0.70;;
11653;SDS011;5883;48.818;9.114;2023-05-10T09:25:15;0.70;;;0.55;;
11653;SDS011;5883;48.818;9.114;2023-05-10T09:28:01;0.77;;;0.57;;
11653;SDS011;5883;48.818;9.114;2023-05-10T09:30:46;2.70;;;0.60;;
11653;SDS011;5883;48.818;9.114;2023-05-10T09:33:44;0.85;;;0.70;;
11653;SDS011;5883;48.818;9.114;2023-05-10T09:36:30;2.72;;;0.90;;
11653;SDS011;5883;48.818;9.114;2023-05-10T09:39:15;1.90;;;0.60;;
11653;SDS011;5883;48.818;9.114;2023-05-10T09:42:01;2.97;;;0.75;;
11653;SDS011;5883;48.818;9.114;2023-05-10T09:44:47;2.15;;;0.70;;
11653;SDS011;5883;48.818;9.114;2023-05-10T09:47:32;1.55;;;0.70;;
11653;SDS011;5883;48.818;9.114;2023-05-10T09:50:19;0.70;;;0.70;;
11653;SDS011;5883;48.818;9.114;2023-05-10T09:53:04;2.03;;;0.82;;
11653;SDS011;5883;48.818;9.114;2023-05-10T09:55:50;2.95;;;1.17;;
11653;SDS011;5883;48.818;9.114;2023-05-10T09:58:36;4.03;;;0.73;;
11653;SDS011;5883;48.818;9.114;2023-05-10T10:01:22;2.95;;;0.80;;
11653;SDS011;5883;48.818;9.114;2023-05-10T10:04:10;1.20;;;0.70;;
11653;SDS011;5883;48.818;9.114;2023-05-10T10:07:01;0.60;;;0.60;;
11653;SDS011;5883;48.818;9.114;2023-05-10T10:09:47;1.08;;;0.70;;
11653;SDS011;5883;48.818;9.114;2023-05-10T10:12:32;2.25;;;0.90;;
11653;SDS011;5883;48.818;9.114;2023-05-10T10:15:17;2.42;;;0.70;;
11653;SDS011;5883;48.818;9.114;2023-05-10T10:18:03;4.43;;;0.93;;
11653;SDS011;5883;48.818;9.114;2023-05-10T10:20:49;4.50;;;0.90;;
11653;SDS011;5883;48.818;9.114;2023-05-10T10:23:36;2.20;;;0.70;;
11653;SDS011;5883;48.818;9.114;2023-05-10T10:26:21;0.77;;;0.77;;
11653;SDS011;5883;48.818;9.114;2023-05-10T10:29:10;1.50;;;0.70;;
11653;SDS011;5883;48.818;9.114;2023-05-10T10:32:06;0.90;;;0.70;;
11653;SDS011;5883;48.818;9.114;2023-05-10T10:34:53;1.33;;;0.75;;
11653;SDS011;5883;48.818;9.114;2023-05-10T10:37:45;0.68;;;0.55;;
11653;SDS011;5883;48.818;9.114;2023-05-10T10:40:32;2.70;;;0.93;;
11653;SDS011;5883;48.818;9.114;2023-05-10T10:43:21;0.68;;;0.65;;
11653;SDS011;5883;48.818;9.114;2023-05-10T10:46:10;5.55;;;0.70;;
11653;SDS011;5883;48.818;9.114;2023-05-10T10:49:07;3.60;;;1.08;;
11653;SDS011;5883;48.818;9.114;2023-05-10T10:52:12;2.83;;;0.60;;
11653;SDS011;5883;48.818;9.114;2023-05-10T10:54:58;1.33;;;0.70;;
11653;SDS011;5883;48.818;9.114;2023-05-10T10:57:49;2.20;;;0.60;;
11653;SDS011;5883;48.818;9.114;2023-05-10T11:00:35;4.15;;;0.60;;
11653;SDS011;5883;48.818;9.114;2023-05-10T11:03:20;0.85;;;0.50;;
11653;SDS011;5883;48.818;9.114;2023-05-10T11:06:07;0.93;;;0.70;;
11653;SDS011;5883;48.818;9.114;2023-05-10T11:08:52;1.38;;;0.60;;
11653;SDS011;5883;48.818;9.114;2023-05-10T11:11:48;1.50;;;0.50;;
11653;SDS011;5883;48.818;9.114;2023-05-10T11:14:34;0.57;;;0.57;;
11653;SDS011;5883;48.818;9.114;2023-05-10T11:17:23;0.50;;;0.50;;
11653;SDS011;5883;48.818;9.114;2023-05-10T11:20:08;0.60;;;0.60;;
11653;SDS011;5883;48.818;9.114;2023-05-10T11:22:54;1.75;;;0.65;;
11653;SDS011;5883;48.818;9.114;2023-05-10T11:25:41;1.48;;;0.70;;
11653;SDS011;5883;48.818;9.114;2023-05-10T11:28:26;0.90;;;0.70;;
11653;SDS011;5883;48.818;9.114;2023-05-10T11:31:14;0.70;;;0.70;;
11653;SDS011;5883;48.818;9.114;2023-05-10T11:34:00;1.25;;;0.57;;
11653;SDS011;5883;48.818;9.114;2023-05-10T11:36:46;2.17;;;0.77;;
11653;SDS011;5883;48.818;9.114;2023-05-10T11:39:35;1.05;;;0.70;;
11653;SDS011;5883;48.818;9.114;2023-05-10T11:42:21;1.63;;;0.80;;
11653;SDS011;5883;48.818;9.114;2023-05-10T11:45:06;1.30;;;0.75;;
11653;SDS011;5883;48.818;9.114;2023-05-10T11:47:53;2.83;;;1.02;;
11653;SDS011;5883;48.818;9.114;2023-05-10T11:50:38;3.67;;;0.95;;
11653;SDS011;5883;48.818;9.114;2023-05-10T11:53:24;1.10;;;0.75;;
11653;SDS011;5883;48.818;9.114;2023-05-10T11:56:10;1.13;;;0.85;;
11653;SDS011;5883;48.818;9.114;2023-05-10T11:58:56;2.83;;;0.80;;
11653;SDS011;5883;48.818;9.114;2023-05-10T12:01:41;3.63;;;0.70;;
11653;SDS011;5883;48.818;9.114;2023-05-10T12:04:27;5.30;;;0.85;;
11653;SDS011;5883;48.818;9.114;2023-05-10T12:07:13;2.50;;;0.90;;
11653;SDS011;5883;48.818;9.114;2023-05-10T12:10:07;2.85;;;0.90;;
11653;SDS011;5883;48.818;9.114;2023-05-10T12:12:53;2.13;;;1.10;;
11653;SDS011;5883;48.818;9.114;2023-05-10T12:15:38;3.65;;;0.80;;
11653;SDS011;5883;48.818;9.114;2023-05-10T12:18:23;2.83;;;0.77;;
11653;SDS011;5883;48.818;9.114;2023-05-10T12:21:10;1.08;;;0.70;;
11653;SDS011;5883;48.818;9.114;2023-05-10T12:23:58;3.90;;;0.98;;
11653;SDS011;5883;48.818;9.114;2023-05-10T12:26:45;1.65;;;0.82;;
11653;SDS011;5883;48.818;9.114;2023-05-10T12:29:30;2.30;;;0.70;;
11653;SDS011;5883;48.818;9.114;2023-05-10T12:32:15;5.80;;;0.90;;
11653;SDS011;5883;48.818;9.114;2023-05-10T12:35:00;0.75;;;0.60;;
11653;SDS011;5883;48.818;9.114;2023-05-10T12:37:46;1.65;;;0.90;;
11653;SDS011;5883;48.818;9.114;2023-05-10T12:40:32;2.85;;;1.02;;
11653;SDS011;5883;48.818;9.114;2023-05-10T12:43:17;2.88;;;0.80;;
11653;SDS011;5883;48.818;9.114;2023-05-10T12:46:05;1.98;;;0.70;;
11653;SDS011;5883;48.818;9.114;2023-05-10T12:48:51;2.95;;;0.88;;
11653;SDS011;5883;48.818;9.114;2023-05-10T12:51:38;6.22;;;1.23;;
11653;SDS011;5883;48.818;9.114;2023-05-10T12:54:24;5.50;;;0.90;;
11653;SDS011;5883;48.818;9.114;2023-05-10T12:57:09;4.60;;;1.15;;
11653;SDS011;5883;48.818;9.114;2023-05-10T12:59:55;0.82;;;0.70;;
11653;SDS011;5883;48.818;9.114;2023-05-10T13:02:40;1.63;;;0.65;;
11653;SDS011;5883;48.818;9.114;2023-05-10T13:05:25;1.35;;;0.90;;
11653;SDS011;5883;48.818;9.114;2023-05-10T13:08:10;2.78;;;0.95;;
11653;SDS011;5883;48.818;9.114;2023-05-10T13:10:56;1.98;;;0.82;;
11653;SDS011;5883;48.818;9.114;2023-05-10T13:13:41;1.13;;;0.68;;
11653;SDS011;5883;48.818;9.114;2023-05-10T13:16:26;3.13;;;0.88;;
11653;SDS011;5883;48.818;9.114;2023-05-10T13:19:12;1.42;;;0.90;;
11653;SDS011;5883;48.818;9.114;2023-05-10T13:21:57;1.73;;;0.80;;
11653;SDS011;5883;48.818;9.114;2023-05-10T13:24:42;2.35;;;0.88;;
11653;SDS011;5883;48.818;9.114;2023-05-10T13:27:28;1.98;;;0.90;;
11653;SDS011;5883;48.818;9.114;2023-05-10T13:30:13;1.63;;;0.60;;
11653;SDS011;5883;48.818;9.114;2023-05-10T13:32:58;1.42;;;1.05;;
11653;SDS011;5883;48.818;9.114;2023-05-10T13:35:43;0.88;;;0.70;;
11653;SDS011;5883;48.818;9.114;2023-05-10T13:38:28;4.60;;;1.05;;
11653;SDS011;5883;48.818;9.114;2023-05-10T13:41:13;0.60;;;0.60;;
11653;SDS011;5883;48.818;9.114;2023-05-10T13:44:00;1.38;;;0.77;;
11653;SDS011;5883;48.818;9.114;2023-05-10T13:46:45;1.75;;;0.88;;
11653;SDS011;5883;48.818;9.114;2023-05-10T13:49:29;2.67;;;0.90;;
11653;SDS011;5883;48.818;9.114;2023-05-10T13:52:14;2.55;;;0.80;;
11653;SDS011;5883;48.818;9.114;2023-05-10T13:55:00;2.35;;;0.70;;
11653;SDS011;5883;48.818;9.114;2023-05-10T13:57:44;0.80;;;0.70;;
11653;SDS011;5883;48.818;9.114;2023-05-10T14:00:31;0.70;;;0.68;;
11653;SDS011;5883;48.818;9.114;2023-05-10T14:03:16;3.35;;;0.70;;
11653;SDS011;5883;48.818;9.114;2023-05-10T14:06:01;4.03;;;0.90;;
11653;SDS011;5883;48.818;9.114;2023-05-10T14:08:46;0.77;;;0.60;;
11653;SDS011;5883;48.818;9.114;2023-05-10T14:11:31;1.10;;;0.70;;
11653;SDS011;5883;48.818;9.114;2023-05-10T14:14:16;0.82;;;0.60;;
11653;SDS011;5883;48.818;9.114;2023-05-10T14:17:02;5.47;;;0.63;;
11653;SDS011;5883;48.818;9.114;2023-05-10T14:19:47;3.28;;;1.00;;
11653;SDS011;5883;48.818;9.114;2023-05-10T14:22:32;1.55;;;0.80;;
11653;SDS011;5883;48.818;9.114;2023-05-10T14:25:17;0.90;;;0.60;;
11653;SDS011;5883;48.818;9.114;2023-05-10T14:28:02;1.00;;;0.77;;
11653;SDS011;5883;48.818;9.114;2023-05-10T14:30:47;3.15;;;0.75;;
11653;SDS011;5883;48.818;9.114;2023-05-10T14:33:34;0.80;;;0.65;;
11653;SDS011;5883;48.818;9.114;2023-05-10T14:36:19;3.05;;;0.80;;
11653;SDS011;5883;48.818;9.114;2023-05-10T14:39:04;1.15;;;0.80;;
11653;SDS011;5883;48.818;9.114;2023-05-10T14:41:50;1.15;;;0.88;;
11653;SDS011;5883;48.818;9.114;2023-05-10T14:44:36;0.55;;;0.55;;
11653;SDS011;5883;48.818;9.114;2023-05-10T14:47:21;1.73;;;1.00;;
11653;SDS011;5883;48.818;9.114;2023-05-10T14:50:08;2.97;;;0.68;;
11653;SDS011;5883;48.818;9.114;2023-05-10T14:52:53;1.98;;;0.70;;
11653;SDS011;5883;48.818;9.114;2023-05-10T14:55:38;1.38;;;0.70;;
11653;SDS011;5883;48.818;9.114;2023-05-10T14:58:23;1.83;;;0.73;;
11653;SDS011;5883;48.818;9.114;2023-05-10T15:01:09;2.85;;;0.70;;
11653;SDS011;5883;48.818;9.114;2023-05-10T15:03:54;3.45;;;0.70;;
11653;SDS011;5883;48.818;9.114;2023-05-10T15:06:40;2.22;;;1.00;;
11653;SDS011;5883;48.818;9.114;2023-05-10T15:09:25;1.98;;;0.75;;
11653;SDS011;5883;48.818;9.114;2023-05-10T15:12:11;1.33;;;0.70;;
11653;SDS011;5883;48.818;9.114;2023-05-10T15:14:56;2.38;;;0.88;;
11653;SDS011;5883;48.818;9.114;2023-05-10T15:17:41;0.93;;;0.65;;
11653;SDS011;5883;48.818;9.114;2023-05-10T15:20:26;1.45;;;0.80;;
11653;SDS011;5883;48.818;9.114;2023-05-10T15:23:13;0.65;;;0.65;;
11653;SDS011;5883;48.818;9.114;2023-05-10T15:25:57;1.70;;;0.75;;
11653;SDS011;5883;48.818;9.114;2023-05-10T15:28:43;0.80;;;0.60;;
11653;SDS011;5883;48.818;9.114;2023-05-10T15:31:27;0.93;;;0.70;;
11653;SDS011;5883;48.818;9.114;2023-05-10T15:34:12;2.05;;;0.80;;
11653;SDS011;5883;48.818;9.114;2023-05-10T15:36:57;1.23;;;0.70;;
11653;SDS011;5883;48.818;9.114;2023-05-10T15:39:44;1.10;;;0.73;;
11653;SDS011;5883;48.818;9.114;2023-05-10T15:42:29;2.53;;;0.90;;
11653;SDS011;5883;48.818;9.114;2023-05-10T15:45:15;0.98;;;0.80;;
11653;SDS011;5883;48.818;9.114;2023-05-10T15:48:00;2.95;;;0.90;;
11653;SDS011;5883;48.818;9.114;2023-05-10T15:50:45;1.55;;;1.10;;
11653;SDS011;5883;48.818;9.114;2023-05-10T15:53:30;1.50;;;0.88;;
11653;SDS011;5883;48.818;9.114;2023-05-10T15:56:16;1.98;;;0.80;;
11653;SDS011;5883;48.818;9.114;2023-05-10T15:59:02;1.08;;;0.95;;
11653;SDS011;5883;48.818;9.114;2023-05-10T16:01:48;1.08;;;0.80;;
11653;SDS011;5883;48.818;9.114;2023-05-10T16:04:34;1.05;;;0.73;;
11653;SDS011;5883;48.818;9.114;2023-05-10T16:07:19;0.75;;;0.75;;
11653;SDS011;5883;48.818;9.114;2023-05-10T16:10:04;3.40;;;0.82;;
11653;SDS011;5883;48.818;9.114;2023-05-10T16:12:51;1.60;;;0.90;;
11653;SDS011;5883;48.818;9.114;2023-05-10T16:15:37;2.58;;;0.70;;
11653;SDS011;5883;48.818;9.114;2023-05-10T16:18:22;0.70;;;0.70;;
11653;SDS011;5883;48.818;9.114;2023-05-10T16:21:06;1.55;;;0.77;;
11653;SDS011;5883;48.818;9.114;2023-05-10T16:23:51;1.15;;;0.75;;
11653;SDS011;5883;48.818;9.114;2023-05-10T16:26:36;1.17;;;0.80;;
11653;SDS011;5883;48.818;9.114;2023-05-10T16:29:25;1.90;;;1.00;;
11653;SDS011;5883;48.818;9.114;2023-05-10T16:32:10;0.93;;;0.70;;
11653;SDS011;5883;48.818;9.114;2023-05-10T16:34:55;3.97;;;0.93;;
11653;SDS011;5883;48.818;9.114;2023-05-10T16:37:40;1.13;;;0.70;;
11653;SDS011;5883;48.818;9.114;2023-05-10T16:40:25;0.70;;;0.63;;
11653;SDS011;5883;48.818;9.114;2023-05-10T16:43:10;0.60;;;0.60;;
11653;SDS011;5883;48.818;9.114;2023-05-10T16:45:56;2.33;;;0.70;;
11653;SDS011;5883;48.818;9.114;2023-05-10T16:48:41;1.83;;;0.80;;
11653;SDS011;5883;48.818;9.114;2023-05-10T16:51:26;1.77;;;1.15;;
11653;SDS011;5883;48.818;9.114;2023-05-10T16:54:11;0.70;;;0.70;;
11653;SDS011;5883;48.818;9.114;2023-05-10T16:56:57;0.60;;;0.60;;
11653;SDS011;5883;48.818;9.114;2023-05-10T16:59:44;0.63;;;0.63;;
11653;SDS011;5883;48.818;9.114;2023-05-10T17:02:40;0.90;;;0.77;;